Time;durP1;ratioP1;P1;durP2;ratioP2;P2;SDS_P1;SDS_P2;PMS_P1;PMS_P2;Temp;Humidity;BMP_temperature;BMP_pressure;BME280_temperature;BME280_humidity;BME280_pressure;Samples;Min_cycle;Max_cycle;Signal;HPM_P1;HPM_P2
2022/07/01 00:00:28;;;;;;;1.90;1.80;;;14.00;99.90;;;;;;504054;236;28633;-69
2022/07/01 00:02:30;;;;;;;2.00;1.90;;;14.00;99.90;;;;;;504078;236;28273;-70
2022/07/01 00:04:31;;;;;;;2.07;1.87;;;14.00;99.90;;;;;;504198;236;28162;-73
2022/07/01 00:06:32;;;;;;;2.00;1.90;;;14.00;99.90;;;;;;504148;236;28232;-70
2022/07/01 00:08:33;;;;;;;7.03;2.60;;;14.00;99.90;;;;;;504196;236;28265;-70
2022/07/01 00:10:37;;;;;;;1.90;1.80;;;14.10;99.90;;;;;;504174;236;28256;-70
2022/07/01 00:12:36;;;;;;;3.53;3.00;;;14.10;99.90;;;;;;504031;236;28383;-71
2022/07/01 00:14:37;;;;;;;2.10;2.00;;;14.10;99.90;;;;;;504191;236;28283;-73
2022/07/01 00:16:38;;;;;;;2.37;2.27;;;14.10;99.90;;;;;;504177;236;29111;-70
2022/07/01 00:18:40;;;;;;;2.60;2.40;;;13.90;99.90;;;;;;504181;236;28850;-70
2022/07/01 00:20:41;;;;;;;2.30;2.20;;;13.80;99.90;;;;;;504146;236;28707;-70
2022/07/01 00:22:42;;;;;;;2.80;2.60;;;13.70;99.90;;;;;;504158;236;29150;-70
2022/07/01 00:24:46;;;;;;;2.50;2.40;;;13.70;99.90;;;;;;504200;236;28369;-72
2022/07/01 00:26:45;;;;;;;2.53;2.40;;;13.70;99.90;;;;;;504002;236;28134;-70
2022/07/01 00:28:46;;;;;;;2.57;2.37;;;13.70;99.90;;;;;;504183;236;28148;-71
2022/07/01 00:30:47;;;;;;;2.53;2.37;;;13.80;99.90;;;;;;504161;236;28229;-70
2022/07/01 00:32:48;;;;;;;2.20;2.10;;;13.90;99.90;;;;;;504144;236;28255;-69
2022/07/01 00:34:50;;;;;;;2.60;2.30;;;13.90;99.90;;;;;;504189;236;28143;-71
2022/07/01 00:36:51;;;;;;;2.37;2.27;;;13.90;99.90;;;;;;504132;236;28247;-71
2022/07/01 00:38:52;;;;;;;2.37;2.27;;;13.90;99.90;;;;;;504188;236;28379;-70
2022/07/01 00:40:53;;;;;;;2.27;2.10;;;14.00;99.90;;;;;;504157;236;28013;-70
2022/07/01 00:42:55;;;;;;;2.60;2.40;;;14.10;99.90;;;;;;504144;236;28797;-70
2022/07/01 00:44:56;;;;;;;2.33;2.23;;;14.10;99.90;;;;;;504183;236;28779;-71
2022/07/01 00:46:57;;;;;;;2.50;2.30;;;14.10;99.90;;;;;;503996;236;28827;-70
2022/07/01 00:49:00;;;;;;;2.20;2.10;;;14.20;99.90;;;;;;504207;236;28540;-70
2022/07/01 00:51:00;;;;;;;2.23;2.13;;;14.20;99.90;;;;;;504152;236;28775;-70
2022/07/01 00:53:01;;;;;;;2.70;2.50;;;14.20;99.90;;;;;;504204;236;28243;-70
2022/07/01 00:55:02;;;;;;;2.17;2.07;;;14.20;99.90;;;;;;504232;236;28365;-70
2022/07/01 00:57:04;;;;;;;2.30;2.20;;;14.20;99.90;;;;;;504107;236;28497;-70
2022/07/01 00:59:05;;;;;;;2.43;2.30;;;14.20;99.90;;;;;;504187;236;28449;-70
2022/07/01 01:01:06;;;;;;;2.63;2.43;;;14.20;99.90;;;;;;504060;236;28363;-70
2022/07/01 01:03:10;;;;;;;2.33;2.23;;;14.10;99.90;;;;;;503955;236;28344;-70
2022/07/01 01:05:09;;;;;;;2.73;2.63;;;14.10;99.90;;;;;;503953;236;28656;-71
2022/07/01 01:07:10;;;;;;;2.67;2.50;;;14.10;99.90;;;;;;504132;236;29277;-71
2022/07/01 01:09:11;;;;;;;2.33;2.23;;;14.00;99.90;;;;;;504175;236;28951;-70
2022/07/01 01:11:13;;;;;;;2.50;2.40;;;14.00;99.90;;;;;;504169;236;28806;-70
2022/07/01 01:13:14;;;;;;;2.40;2.30;;;14.00;99.90;;;;;;504109;236;28880;-70
2022/07/01 01:15:15;;;;;;;2.37;2.27;;;14.10;99.90;;;;;;504150;236;28363;-73
2022/07/01 01:17:16;;;;;;;2.23;2.13;;;14.10;99.90;;;;;;504014;236;28179;-70
2022/07/01 01:19:17;;;;;;;2.20;2.10;;;14.10;99.90;;;;;;504132;236;28283;-71
2022/07/01 01:21:19;;;;;;;2.33;2.20;;;14.10;99.90;;;;;;504163;236;28271;-70
2022/07/01 01:23:20;;;;;;;2.87;2.67;;;14.10;99.90;;;;;;504138;236;28407;-71
2022/07/01 01:25:21;;;;;;;2.60;2.40;;;14.10;99.90;;;;;;504177;236;28382;-72
2022/07/01 01:27:22;;;;;;;2.50;2.30;;;14.20;99.90;;;;;;504125;236;28346;-70
2022/07/01 01:29:24;;;;;;;2.57;2.47;;;14.10;99.90;;;;;;504159;236;28432;-71
2022/07/01 01:31:25;;;;;;;2.43;2.33;;;14.10;99.90;;;;;;504165;236;28867;-70
2022/07/01 01:33:26;;;;;;;2.53;2.43;;;14.10;99.90;;;;;;504160;236;28763;-70
2022/07/01 01:35:27;;;;;;;2.77;2.60;;;14.10;99.90;;;;;;504119;236;28802;-73
2022/07/01 01:37:29;;;;;;;2.40;2.30;;;14.10;99.90;;;;;;504124;236;28715;-70
2022/07/01 01:39:30;;;;;;;2.30;2.20;;;14.00;99.90;;;;;;504038;236;28256;-72
2022/07/01 01:41:31;;;;;;;2.53;2.43;;;14.10;99.90;;;;;;504077;236;28203;-71
2022/07/01 01:43:35;;;;;;;2.50;2.40;;;14.10;99.90;;;;;;504145;236;28346;-72
2022/07/01 01:45:36;;;;;;;2.40;2.30;;;14.00;99.90;;;;;;504101;236;28394;-71
2022/07/01 01:47:38;;;;;;;2.43;2.33;;;13.90;99.90;;;;;;504186;236;28050;-73
2022/07/01 01:49:39;;;;;;;2.67;2.47;;;14.00;99.90;;;;;;504133;236;28151;-70
2022/07/01 01:51:40;;;;;;;2.27;2.17;;;14.10;99.90;;;;;;504161;236;28944;-70
2022/07/01 01:53:41;;;;;;;2.50;2.40;;;14.00;99.90;;;;;;504166;236;28797;-70
2022/07/01 01:55:43;;;;;;;2.40;2.27;;;13.90;99.90;;;;;;504114;236;28641;-70
2022/07/01 01:57:44;;;;;;;2.43;2.33;;;13.90;99.90;;;;;;504165;236;29150;-72
2022/07/01 01:59:45;;;;;;;2.70;2.53;;;13.80;99.90;;;;;;504157;236;28287;-70
2022/07/01 02:01:47;;;;;;;2.97;2.77;;;13.70;99.90;;;;;;504139;236;28752;-71
2022/07/01 02:03:48;;;;;;;2.73;2.63;;;13.70;99.90;;;;;;504181;236;28721;-71
2022/07/01 02:05:50;;;;;;;2.80;2.60;;;13.80;99.90;;;;;;504131;236;28252;-71
2022/07/01 02:07:50;;;;;;;2.43;2.33;;;13.80;99.90;;;;;;504157;236;28343;-72
2022/07/01 02:09:51;;;;;;;2.33;2.23;;;13.80;99.90;;;;;;504161;236;28277;-72
2022/07/01 02:11:53;;;;;;;2.93;2.73;;;13.80;99.90;;;;;;504177;236;28061;-70
2022/07/01 02:13:54;;;;;;;2.67;2.47;;;13.80;99.90;;;;;;504150;236;28336;-70
2022/07/01 02:15:56;;;;;;;2.73;2.53;;;13.80;99.90;;;;;;504139;236;28219;-70
2022/07/01 02:17:57;;;;;;;2.40;2.30;;;13.90;99.90;;;;;;504158;236;28635;-71
2022/07/01 02:19:58;;;;;;;2.20;2.10;;;13.80;99.90;;;;;;504160;236;28694;-71
2022/07/01 02:21:59;;;;;;;2.37;2.20;;;13.80;99.90;;;;;;504203;236;28632;-70
2022/07/01 02:24:00;;;;;;;2.90;2.70;;;13.70;99.90;;;;;;504219;236;28616;-70
2022/07/01 02:26:02;;;;;;;3.00;2.80;;;13.60;99.90;;;;;;504199;236;28208;-70
2022/07/01 02:28:04;;;;;;;2.40;2.30;;;;;;;;;;504210;236;28165;-70
2022/07/01 02:30:05;;;;;;;2.27;2.17;;;13.40;99.90;;;;;;504224;235;27006;-71
2022/07/01 02:32:06;;;;;;;2.67;2.57;;;13.50;99.90;;;;;;504196;236;28525;-70
2022/07/01 02:34:08;;;;;;;4.70;2.40;;;13.50;99.90;;;;;;504147;236;28596;-70
2022/07/01 02:36:09;;;;;;;6.43;2.90;;;13.40;99.90;;;;;;504183;236;28701;-72
2022/07/01 02:38:10;;;;;;;2.93;2.60;;;13.30;99.90;;;;;;504203;236;28225;-70
2022/07/01 02:40:13;;;;;;;2.67;2.50;;;13.40;99.90;;;;;;504206;236;28258;-71
2022/07/01 02:42:31;;;;;;;2.20;2.10;;;13.40;99.90;;;;;;504090;236;28199;-71
2022/07/01 02:44:29;;;;;;;2.97;2.73;;;13.50;99.90;;;;;;503946;236;28712;-71
2022/07/01 02:46:30;;;;;;;3.10;2.60;;;13.60;99.90;;;;;;504160;236;28660;-70
2022/07/01 02:48:32;;;;;;;2.33;2.23;;;13.50;99.90;;;;;;504150;236;28758;-71
2022/07/01 02:50:33;;;;;;;2.20;2.10;;;13.60;99.90;;;;;;504154;236;28445;-70
2022/07/01 02:52:34;;;;;;;2.47;2.37;;;13.40;99.90;;;;;;504115;236;28169;-71
2022/07/01 02:54:35;;;;;;;3.10;2.70;;;13.40;99.90;;;;;;504145;236;28039;-72
2022/07/01 02:56:37;;;;;;;2.40;2.30;;;13.40;99.90;;;;;;504156;236;28051;-70
2022/07/01 02:58:39;;;;;;;2.93;2.30;;;13.50;99.90;;;;;;504170;236;28317;-71
2022/07/01 03:00:39;;;;;;;2.97;2.83;;;13.50;99.90;;;;;;504089;236;28173;-70
2022/07/01 03:02:40;;;;;;;3.00;2.80;;;13.50;99.90;;;;;;504129;236;28039;-70
2022/07/01 03:04:42;;;;;;;2.60;2.40;;;13.50;99.90;;;;;;504067;236;28110;-71
2022/07/01 03:06:43;;;;;;;2.60;2.50;;;13.40;99.90;;;;;;504170;236;28210;-70
2022/07/01 03:08:44;;;;;;;2.30;2.20;;;13.40;99.90;;;;;;504144;236;28570;-70
2022/07/01 03:10:45;;;;;;;3.00;2.60;;;13.40;99.90;;;;;;504159;236;28948;-70
2022/07/01 03:12:47;;;;;;;2.60;2.40;;;13.50;99.90;;;;;;504118;236;28839;-71
2022/07/01 03:14:49;;;;;;;2.20;2.10;;;;;;;;;;504166;236;28086;-70
2022/07/01 03:16:50;;;;;;;2.60;2.50;;;13.50;99.90;;;;;;504136;235;26618;-71
2022/07/01 03:18:52;;;;;;;2.47;2.27;;;13.50;99.90;;;;;;504118;236;28016;-70
2022/07/01 03:20:53;;;;;;;2.57;2.37;;;13.50;99.90;;;;;;504164;236;28904;-70
2022/07/01 03:22:54;;;;;;;2.80;2.60;;;13.50;99.90;;;;;;504020;236;28547;-72
2022/07/01 03:24:55;;;;;;;3.17;2.20;;;13.50;99.90;;;;;;504205;236;28668;-71
2022/07/01 03:26:57;;;;;;;2.53;2.43;;;13.50;99.90;;;;;;504184;236;28777;-70
2022/07/01 03:28:58;;;;;;;3.00;2.80;;;13.50;99.90;;;;;;504148;236;28078;-70
2022/07/01 03:30:59;;;;;;;2.60;2.50;;;13.50;99.90;;;;;;504182;236;28019;-71
2022/07/01 03:33:00;;;;;;;3.43;3.17;;;13.40;99.90;;;;;;504157;236;28270;-71
2022/07/01 03:35:35;;;;;;;3.20;3.00;;;13.30;99.90;;;;;;504175;236;28003;-71
2022/07/01 03:37:04;;;;;;;3.60;3.30;;;;;;;;;;502348;236;28224;-70
2022/07/01 03:39:05;;;;;;;3.43;3.10;;;13.30;99.90;;;;;;504167;235;27809;-70
2022/07/01 03:41:07;;;;;;;2.93;2.73;;;13.30;99.90;;;;;;504194;236;28462;-74
2022/07/01 03:43:09;;;;;;;2.60;2.50;;;13.20;99.90;;;;;;504198;236;28238;-70
2022/07/01 03:45:09;;;;;;;3.17;2.87;;;13.30;99.90;;;;;;504175;236;28126;-71
2022/07/01 03:47:10;;;;;;;3.10;2.90;;;13.30;99.90;;;;;;504191;236;28160;-70
2022/07/01 03:49:12;;;;;;;3.30;3.10;;;13.30;99.90;;;;;;504120;236;28038;-71
2022/07/01 03:51:13;;;;;;;3.90;3.60;;;13.20;99.90;;;;;;504222;236;28126;-72
2022/07/01 03:55:34;;;;;;;3.50;3.20;;;13.30;99.90;;;;;;504190;236;28232;-70
2022/07/01 03:57:35;;;;;;;3.27;3.07;;;13.50;99.90;;;;;;504200;236;28043;-72
2022/07/01 03:59:36;;;;;;;3.13;2.93;;;13.50;99.90;;;;;;504171;236;28200;-70
2022/07/01 04:01:37;;;;;;;3.17;2.97;;;13.50;99.90;;;;;;504190;236;28072;-71
2022/07/01 04:03:39;;;;;;;3.30;3.10;;;13.50;99.90;;;;;;504177;236;28638;-71
2022/07/01 04:05:40;;;;;;;3.90;3.60;;;13.60;99.90;;;;;;504162;236;28112;-70
2022/07/01 04:07:41;;;;;;;3.10;2.90;;;13.60;99.90;;;;;;504186;236;28267;-73
2022/07/01 04:09:42;;;;;;;3.70;3.50;;;13.70;99.90;;;;;;504157;236;28535;-70
2022/07/01 04:11:44;;;;;;;3.57;3.30;;;13.70;99.90;;;;;;504192;236;28755;-71
2022/07/01 04:13:49;;;;;;;3.60;3.40;;;13.60;99.90;;;;;;504183;236;28665;-70
2022/07/01 04:15:46;;;;;;;3.30;3.10;;;13.60;99.90;;;;;;503799;236;28738;-71
2022/07/01 04:17:47;;;;;;;3.67;3.47;;;13.70;99.90;;;;;;504161;236;28043;-70
2022/07/01 04:19:49;;;;;;;3.20;3.00;;;13.70;99.90;;;;;;504149;236;28179;-70
2022/07/01 04:24:10;;;;;;;2.60;2.40;;;13.80;99.90;;;;;;504189;236;28349;-72
2022/07/01 04:26:11;;;;;;;4.33;2.50;;;13.80;99.90;;;;;;504158;236;28111;-70
2022/07/01 04:28:12;;;;;;;2.40;2.30;;;13.80;99.90;;;;;;504189;236;28169;-71
2022/07/01 04:30:14;;;;;;;3.60;3.20;;;13.80;99.90;;;;;;504142;236;28017;-71
2022/07/01 04:32:15;;;;;;;2.53;2.37;;;13.80;99.90;;;;;;504153;236;28124;-71
2022/07/01 04:34:16;;;;;;;4.00;2.83;;;13.90;99.90;;;;;;504138;236;28154;-71
2022/07/01 04:36:17;;;;;;;4.70;2.80;;;13.90;99.90;;;;;;504056;236;28546;-71
2022/07/01 04:38:18;;;;;;;2.93;2.73;;;13.90;99.90;;;;;;504145;236;28903;-71
2022/07/01 04:40:20;;;;;;;3.73;3.43;;;13.80;99.90;;;;;;504188;236;30634;-70
2022/07/01 04:42:22;;;;;;;4.13;3.83;;;13.80;99.90;;;;;;504142;236;28326;-71
2022/07/01 04:44:22;;;;;;;3.70;3.40;;;13.80;99.90;;;;;;504150;236;28270;-72
2022/07/01 04:46:23;;;;;;;3.33;3.13;;;13.80;99.90;;;;;;504140;236;28486;-70
2022/07/01 04:48:25;;;;;;;3.33;3.13;;;13.80;99.90;;;;;;504188;236;28372;-70
2022/07/01 04:50:26;;;;;;;4.10;3.80;;;13.80;99.90;;;;;;504188;236;28035;-70
2022/07/01 04:52:27;;;;;;;3.53;3.33;;;13.80;99.90;;;;;;504158;236;28462;-71
2022/07/01 04:54:28;;;;;;;3.40;3.10;;;13.80;99.90;;;;;;504181;236;28284;-71
2022/07/01 04:56:30;;;;;;;3.40;3.20;;;13.80;99.90;;;;;;504160;236;28146;-70
2022/07/01 04:58:31;;;;;;;3.33;3.13;;;13.80;99.90;;;;;;504163;236;28770;-71
2022/07/01 05:00:32;;;;;;;3.77;3.47;;;13.90;99.90;;;;;;504174;236;29547;-70
2022/07/01 05:02:33;;;;;;;3.33;3.13;;;13.80;99.90;;;;;;504144;236;28475;-71
2022/07/01 05:04:35;;;;;;;3.90;3.60;;;13.70;99.90;;;;;;504171;236;28766;-71
2022/07/01 05:06:36;;;;;;;3.20;3.00;;;13.80;99.90;;;;;;504153;236;28109;-71
2022/07/01 05:08:37;;;;;;;3.43;3.23;;;13.80;99.90;;;;;;504188;236;28333;-70
2022/07/01 05:10:38;;;;;;;4.57;3.23;;;13.80;99.90;;;;;;504176;236;28347;-70
2022/07/01 05:12:40;;;;;;;3.60;3.40;;;13.80;99.90;;;;;;504150;236;28197;-70
2022/07/01 05:14:41;;;;;;;3.40;3.20;;;13.80;99.90;;;;;;504178;236;28062;-71
2022/07/01 05:16:42;;;;;;;3.30;3.10;;;13.80;99.90;;;;;;504173;236;28038;-70
2022/07/01 05:23:22;;;;;;;3.80;3.60;;;13.80;99.90;;;;;;504206;236;28165;-70
2022/07/01 05:25:23;;;;;;;4.27;4.07;;;13.70;99.90;;;;;;504176;236;28051;-71
2022/07/01 05:27:25;;;;;;;3.73;3.43;;;13.80;99.90;;;;;;504146;236;28249;-71
2022/07/01 05:29:26;;;;;;;3.97;3.60;;;13.70;99.90;;;;;;504171;236;28779;-70
2022/07/01 05:31:27;;;;;;;3.47;3.27;;;13.70;99.90;;;;;;504185;236;29134;-73
2022/07/01 05:33:28;;;;;;;4.23;2.90;;;13.70;99.90;;;;;;504167;236;28751;-70
2022/07/01 05:35:30;;;;;;;3.30;3.00;;;13.70;99.90;;;;;;504192;236;28762;-71
2022/07/01 05:37:31;;;;;;;3.00;2.90;;;13.70;99.90;;;;;;504171;236;28448;-70
2022/07/01 05:39:32;;;;;;;3.10;2.90;;;13.70;99.90;;;;;;504159;236;28032;-70
2022/07/01 05:41:34;;;;;;;2.40;2.30;;;13.80;99.90;;;;;;504208;236;28288;-73
2022/07/01 05:43:35;;;;;;;2.67;2.57;;;13.90;99.90;;;;;;504184;236;28235;-71
2022/07/01 05:45:36;;;;;;;2.57;2.47;;;13.90;99.90;;;;;;504164;236;28245;-71
2022/07/01 05:47:37;;;;;;;2.90;2.70;;;14.00;99.90;;;;;;504105;235;28484;-71
2022/07/01 05:49:38;;;;;;;3.70;2.90;;;14.00;99.90;;;;;;504146;236;28267;-71
2022/07/01 05:51:40;;;;;;;2.60;2.40;;;14.00;99.90;;;;;;504204;236;28376;-72
2022/07/01 05:53:43;;;;;;;2.80;2.70;;;14.00;99.90;;;;;;504164;236;28742;-71
2022/07/01 05:55:42;;;;;;;2.50;2.40;;;14.00;99.90;;;;;;504049;236;29233;-71
2022/07/01 05:57:43;;;;;;;2.10;2.00;;;13.90;99.90;;;;;;503056;236;28788;-71
2022/07/01 05:59:45;;;;;;;2.40;2.30;;;13.90;99.90;;;;;;488493;241;28632;-70
2022/07/01 06:01:47;;;;;;;2.63;2.20;;;13.90;99.90;;;;;;488555;243;28425;-74
2022/07/01 06:03:47;;;;;;;2.30;2.20;;;13.90;99.90;;;;;;488426;243;28438;-70
2022/07/01 06:05:48;;;;;;;2.93;2.63;;;13.90;99.90;;;;;;488514;243;28501;-71
2022/07/01 06:07:50;;;;;;;2.17;2.07;;;13.80;99.90;;;;;;488539;243;28287;-71
2022/07/01 06:09:51;;;;;;;2.67;2.47;;;13.80;99.90;;;;;;488500;243;28541;-70
2022/07/01 06:11:52;;;;;;;2.40;2.10;;;13.80;99.90;;;;;;488561;243;28202;-73
2022/07/01 06:13:53;;;;;;;2.13;2.00;;;13.90;99.90;;;;;;488554;243;28370;-70
2022/07/01 06:15:58;;;;;;;3.63;2.60;;;14.00;99.90;;;;;;488529;243;28331;-72
2022/07/01 06:17:57;;;;;;;2.43;2.23;;;14.00;99.90;;;;;;488353;243;28283;-70
2022/07/01 06:19:57;;;;;;;2.57;2.37;;;14.00;99.90;;;;;;488518;243;29613;-71
2022/07/01 06:21:58;;;;;;;3.13;2.93;;;14.10;99.90;;;;;;488551;243;28933;-72
2022/07/01 06:24:00;;;;;;;2.93;2.73;;;14.00;99.90;;;;;;488551;243;28862;-70
2022/07/01 06:26:01;;;;;;;2.53;2.43;;;14.10;99.90;;;;;;488553;243;28334;-70
2022/07/01 06:28:02;;;;;;;2.43;2.30;;;14.30;99.90;;;;;;488512;243;28332;-70
2022/07/01 06:30:03;;;;;;;2.60;2.40;;;14.40;99.90;;;;;;488571;243;28722;-70
2022/07/01 06:32:05;;;;;;;2.53;2.43;;;14.50;99.90;;;;;;488568;241;28866;-71
2022/07/01 06:34:06;;;;;;;2.93;2.73;;;14.60;99.90;;;;;;488551;243;28705;-70
2022/07/01 06:36:07;;;;;;;2.73;2.47;;;14.50;99.90;;;;;;488543;243;29087;-70
2022/07/01 06:38:08;;;;;;;3.23;2.93;;;14.60;99.90;;;;;;488511;243;28810;-70
2022/07/01 06:40:10;;;;;;;2.97;2.77;;;14.70;99.90;;;;;;488484;243;28800;-71
2022/07/01 06:42:11;;;;;;;2.97;2.73;;;14.70;99.90;;;;;;488531;243;28761;-71
2022/07/01 06:44:13;;;;;;;2.93;2.73;;;14.60;99.90;;;;;;488498;243;30042;-70
2022/07/01 06:46:14;;;;;;;2.97;2.50;;;14.50;99.90;;;;;;488540;243;29230;-70
2022/07/01 06:48:15;;;;;;;2.93;2.73;;;14.40;99.90;;;;;;488542;243;29317;-70
2022/07/01 06:50:16;;;;;;;2.53;2.43;;;14.30;99.90;;;;;;488543;243;29158;-70
2022/07/01 06:52:17;;;;;;;2.40;2.30;;;14.30;99.90;;;;;;488551;243;29073;-71
2022/07/01 06:54:19;;;;;;;2.30;2.20;;;14.40;99.90;;;;;;488540;243;28755;-70
2022/07/01 06:56:20;;;;;;;2.80;2.60;;;14.40;99.90;;;;;;488548;243;28837;-70
2022/07/01 06:58:21;;;;;;;2.27;2.13;;;14.40;99.90;;;;;;488540;243;28803;-70
2022/07/01 07:00:22;;;;;;;2.70;2.50;;;14.50;99.90;;;;;;488526;243;28726;-70
2022/07/01 07:02:24;;;;;;;3.07;2.60;;;14.50;99.90;;;;;;488557;243;28826;-70
2022/07/01 07:04:25;;;;;;;2.77;2.57;;;14.40;99.90;;;;;;488562;243;28703;-70
2022/07/01 07:06:26;;;;;;;2.30;2.20;;;14.40;99.90;;;;;;488553;243;28814;-70
2022/07/01 07:08:27;;;;;;;3.43;2.27;;;14.40;99.90;;;;;;488575;243;28857;-73
2022/07/01 07:10:29;;;;;;;2.10;2.00;;;14.30;99.90;;;;;;488566;243;29259;-70
2022/07/01 07:12:30;;;;;;;2.27;2.17;;;14.20;99.90;;;;;;488541;243;29283;-71
2022/07/01 07:14:31;;;;;;;3.97;3.67;;;14.20;99.90;;;;;;488595;243;28823;-70
2022/07/01 07:16:32;;;;;;;6.73;2.90;;;14.00;99.90;;;;;;488533;243;28503;-70
2022/07/01 07:18:34;;;;;;;2.30;2.20;;;13.90;99.90;;;;;;488566;243;28745;-71
2022/07/01 07:20:35;;;;;;;2.90;2.70;;;13.90;99.90;;;;;;488558;243;28789;-70
2022/07/01 07:22:36;;;;;;;4.23;2.50;;;13.80;99.90;;;;;;488516;243;28751;-70
2022/07/01 07:24:38;;;;;;;2.50;2.40;;;13.80;99.90;;;;;;488360;243;28320;-70
2022/07/01 07:26:39;;;;;;;3.30;3.10;;;13.80;99.90;;;;;;488521;243;28402;-70
2022/07/01 07:28:40;;;;;;;3.13;2.93;;;13.80;99.90;;;;;;488546;243;28416;-72
2022/07/01 07:30:41;;;;;;;4.20;2.90;;;13.90;99.90;;;;;;488522;243;28427;-70
2022/07/01 07:32:42;;;;;;;2.67;2.53;;;13.90;99.90;;;;;;488521;243;28929;-70
2022/07/01 07:34:44;;;;;;;3.03;2.80;;;14.00;99.90;;;;;;488537;243;28700;-70
2022/07/01 07:36:45;;;;;;;2.67;2.47;;;14.20;99.90;;;;;;488557;243;28403;-70
2022/07/01 07:38:46;;;;;;;3.10;2.90;;;14.30;99.90;;;;;;488535;243;29210;-71
2022/07/01 07:40:47;;;;;;;2.50;2.40;;;14.30;99.90;;;;;;488527;243;29202;-70
2022/07/01 07:42:49;;;;;;;2.60;2.40;;;14.50;99.90;;;;;;488509;243;29298;-71
2022/07/01 07:44:50;;;;;;;2.50;2.30;;;14.60;99.90;;;;;;488450;243;28821;-73
2022/07/01 07:46:51;;;;;;;2.93;2.43;;;14.70;99.90;;;;;;488560;243;28720;-70
2022/07/01 07:48:53;;;;;;;2.80;2.63;;;14.50;99.90;;;;;;488506;243;29357;-71
2022/07/01 07:50:54;;;;;;;2.90;2.50;;;14.50;99.90;;;;;;488506;243;29258;-70
2022/07/01 07:52:55;;;;;;;3.50;2.70;;;14.40;99.90;;;;;;488526;243;29205;-70
2022/07/01 07:54:56;;;;;;;2.60;2.40;;;14.40;99.90;;;;;;488288;243;28854;-72
2022/07/01 07:56:58;;;;;;;4.73;2.83;;;14.60;99.90;;;;;;488502;243;28823;-70
2022/07/01 07:58:59;;;;;;;2.40;2.30;;;14.60;99.90;;;;;;488548;243;28816;-70
2022/07/01 08:01:00;;;;;;;2.67;2.47;;;14.50;99.90;;;;;;488394;243;28696;-70
2022/07/01 08:03:01;;;;;;;2.30;2.10;;;14.70;99.90;;;;;;488513;243;28717;-70
2022/07/01 08:05:03;;;;;;;2.70;2.50;;;15.00;99.90;;;;;;488521;243;28770;-73
2022/07/01 08:07:04;;;;;;;2.30;2.20;;;15.10;99.90;;;;;;488503;243;28776;-70
2022/07/01 08:09:06;;;;;;;2.33;2.23;;;14.90;99.90;;;;;;488529;243;28806;-70
2022/07/01 08:11:06;;;;;;;2.30;2.10;;;14.80;99.90;;;;;;488512;243;28688;-70
2022/07/01 08:13:08;;;;;;;2.70;2.50;;;14.90;99.90;;;;;;488471;243;29218;-70
2022/07/01 08:15:09;;;;;;;2.70;2.30;;;15.10;99.90;;;;;;488537;243;29293;-73
2022/07/01 08:17:10;;;;;;;2.40;2.30;;;15.40;99.90;;;;;;488521;243;29264;-70
2022/07/01 08:19:11;;;;;;;2.43;2.33;;;15.50;99.90;;;;;;488508;243;29217;-70
2022/07/01 08:21:13;;;;;;;2.40;2.30;;;15.40;99.90;;;;;;488543;243;28695;-70
2022/07/01 08:23:14;;;;;;;2.27;2.07;;;15.20;99.90;;;;;;488541;243;28811;-70
2022/07/01 08:25:15;;;;;;;2.33;2.10;;;15.30;99.90;;;;;;488494;243;28742;-73
2022/07/01 08:27:16;;;;;;;2.33;2.20;;;15.50;99.90;;;;;;488538;243;28812;-70
2022/07/01 08:29:18;;;;;;;2.50;2.17;;;15.90;99.90;;;;;;488435;243;28771;-71
2022/07/01 08:31:19;;;;;;;2.40;2.23;;;16.00;99.90;;;;;;488548;243;28706;-70
2022/07/01 08:33:20;;;;;;;2.20;2.10;;;15.80;99.90;;;;;;488372;243;29216;-70
2022/07/01 08:35:21;;;;;;;2.07;1.97;;;15.60;99.90;;;;;;488498;243;29272;-72
2022/07/01 08:37:23;;;;;;;2.90;2.60;;;15.60;99.90;;;;;;488527;243;29176;-71
2022/07/01 08:39:24;;;;;;;2.30;2.20;;;15.90;99.90;;;;;;488531;243;29324;-70
2022/07/01 08:41:25;;;;;;;2.83;1.97;;;16.20;99.90;;;;;;488492;243;28694;-70
2022/07/01 08:43:26;;;;;;;3.00;1.70;;;16.40;99.90;;;;;;488529;243;28710;-70
2022/07/01 08:45:28;;;;;;;3.43;2.00;;;16.10;99.90;;;;;;488369;243;28770;-71
2022/07/01 08:47:29;;;;;;;2.10;1.83;;;16.00;99.90;;;;;;488530;243;28725;-70
2022/07/01 08:49:30;;;;;;;2.00;1.90;;;16.10;99.90;;;;;;488517;243;28718;-71
2022/07/01 08:51:31;;;;;;;2.77;2.30;;;16.20;99.90;;;;;;488515;243;28779;-70
2022/07/01 08:53:33;;;;;;;3.17;2.07;;;16.20;99.90;;;;;;488492;243;28712;-70
2022/07/01 08:57:35;;;;;;;2.03;1.93;;;16.20;99.90;;;;;;477052;243;28782;-70
2022/07/01 08:59:36;;;;;;;2.20;2.10;;;16.50;99.90;;;;;;488562;243;29205;-71
2022/07/01 09:01:38;;;;;;;2.13;2.03;;;16.70;99.90;;;;;;488543;243;29297;-70
2022/07/01 09:03:39;;;;;;;2.33;2.23;;;16.90;99.90;;;;;;488488;243;29322;-70
2022/07/01 09:05:40;;;;;;;2.30;2.10;;;16.90;99.90;;;;;;488547;243;28829;-71
2022/07/01 09:07:41;;;;;;;2.70;2.20;;;16.80;99.90;;;;;;488448;243;28745;-70
2022/07/01 09:09:43;;;;;;;2.20;2.10;;;16.70;99.90;;;;;;488440;243;28765;-71
2022/07/01 09:11:44;;;;;;;2.10;2.00;;;16.70;99.90;;;;;;488547;243;28715;-70
2022/07/01 09:13:45;;;;;;;2.10;2.00;;;16.40;99.90;;;;;;488545;243;28767;-70
2022/07/01 09:15:46;;;;;;;2.03;1.93;;;16.40;99.90;;;;;;488509;243;28819;-72
2022/07/01 09:17:48;;;;;;;3.87;2.20;;;16.50;99.90;;;;;;488516;243;28759;-70
2022/07/01 09:19:50;;;;;;;5.40;2.37;;;16.50;99.90;;;;;;488510;243;28755;-70
2022/07/01 09:21:50;;;;;;;2.30;2.10;;;16.40;99.90;;;;;;488482;243;28818;-75
2022/07/01 09:23:51;;;;;;;1.90;1.80;;;16.70;99.90;;;;;;488407;243;29214;-71
2022/07/01 09:25:53;;;;;;;2.40;2.30;;;16.50;99.90;;;;;;488439;243;29221;-71
2022/07/01 09:27:54;;;;;;;2.00;1.90;;;16.60;99.90;;;;;;487935;243;32002;-71
2022/07/01 09:29:55;;;;;;;2.50;2.23;;;16.90;99.90;;;;;;488530;243;28760;-71
2022/07/01 09:31:56;;;;;;;4.90;2.10;;;17.40;99.90;;;;;;488531;243;28737;-73
2022/07/01 09:33:58;;;;;;;2.60;2.40;;;17.60;99.90;;;;;;488538;243;28740;-70
2022/07/01 09:35:59;;;;;;;2.60;2.50;;;17.90;99.90;;;;;;488510;242;28755;-71
2022/07/01 09:38:00;;;;;;;2.83;2.63;;;18.00;99.90;;;;;;488425;243;28700;-70
2022/07/01 09:40:03;;;;;;;2.50;2.40;;;18.10;99.90;;;;;;488460;243;28833;-71
2022/07/01 09:42:03;;;;;;;3.40;3.10;;;18.00;99.90;;;;;;488365;243;29085;-72
2022/07/01 09:44:04;;;;;;;3.20;2.93;;;17.80;99.90;;;;;;488526;243;28816;-71
2022/07/01 09:46:05;;;;;;;2.90;2.70;;;17.70;99.90;;;;;;488521;243;28786;-71
2022/07/01 09:48:06;;;;;;;2.83;2.60;;;17.80;99.90;;;;;;488501;243;29164;-71
2022/07/01 09:50:08;;;;;;;2.20;2.10;;;18.00;99.90;;;;;;488527;243;29324;-70
2022/07/01 09:52:09;;;;;;;2.33;2.23;;;17.90;99.90;;;;;;488512;243;29227;-74
2022/07/01 09:54:10;;;;;;;2.13;2.03;;;17.90;99.90;;;;;;488487;243;29966;-70
2022/07/01 09:56:11;;;;;;;2.10;2.00;;;18.00;99.90;;;;;;488537;243;28730;-71
2022/07/01 09:58:13;;;;;;;1.90;1.80;;;18.10;99.90;;;;;;488530;243;28818;-71
2022/07/01 10:00:14;;;;;;;2.07;1.97;;;18.20;99.90;;;;;;488504;243;28745;-71
2022/07/01 10:02:15;;;;;;;2.60;1.83;;;17.90;99.90;;;;;;488517;243;28738;-73
2022/07/01 10:04:16;;;;;;;1.77;1.70;;;17.50;99.90;;;;;;488450;243;28782;-70
2022/07/01 10:06:18;;;;;;;3.27;2.00;;;17.40;99.90;;;;;;488477;243;28745;-71
2022/07/01 10:08:19;;;;;;;2.20;2.10;;;17.70;99.90;;;;;;488429;243;28832;-70
2022/07/01 10:10:20;;;;;;;1.80;1.70;;;17.70;99.90;;;;;;488497;243;28742;-70
2022/07/01 10:12:21;;;;;;;2.00;1.90;;;17.70;99.90;;;;;;488517;243;29217;-74
2022/07/01 10:14:23;;;;;;;1.83;1.73;;;17.50;99.90;;;;;;488505;243;29177;-70
2022/07/01 10:16:24;;;;;;;2.30;1.90;;;17.40;99.90;;;;;;488476;243;29315;-71
2022/07/01 10:18:25;;;;;;;2.10;1.90;;;17.40;99.90;;;;;;488487;243;28852;-70
2022/07/01 10:20:26;;;;;;;1.90;1.80;;;17.30;99.90;;;;;;488521;243;28789;-71
2022/07/01 10:22:28;;;;;;;2.27;1.87;;;17.50;99.90;;;;;;488519;243;28814;-73
2022/07/01 10:24:29;;;;;;;2.13;1.87;;;17.70;99.90;;;;;;488555;243;28705;-70
2022/07/01 10:26:30;;;;;;;1.90;1.80;;;17.80;99.90;;;;;;488526;243;28750;-72
2022/07/01 10:28:31;;;;;;;2.10;2.00;;;17.70;99.90;;;;;;488567;243;28779;-71
2022/07/01 10:30:36;;;;;;;1.93;1.83;;;17.70;99.90;;;;;;488552;243;28698;-70
2022/07/01 10:32:37;;;;;;;1.83;1.77;;;17.80;99.90;;;;;;488542;243;29161;-70
2022/07/01 10:34:38;;;;;;;2.27;2.07;;;18.10;99.90;;;;;;488575;243;28818;-72
2022/07/01 10:36:39;;;;;;;1.93;1.83;;;18.10;99.90;;;;;;488556;243;28690;-71
2022/07/01 10:38:41;;;;;;;1.80;1.70;;;17.90;99.90;;;;;;488512;243;28833;-71
2022/07/01 10:40:45;;;;;;;1.93;1.83;;;17.70;99.90;;;;;;488575;243;28699;-70
2022/07/01 10:42:43;;;;;;;2.10;2.00;;;17.40;99.90;;;;;;488360;243;28704;-70